Time;durP1;ratioP1;P1;durP2;ratioP2;P2;SDS_P1;SDS_P2;PMS_P1;PMS_P2;Temp;Humidity;BMP_temperature;BMP_pressure;BME280_temperature;BME280_humidity;BME280_pressure;Samples;Min_cycle;Max_cycle;Signal;HPM_P1;HPM_P2
2022/09/25 00:01:09;;;;;;;10.18;0.70;;;12.50;99.90;;;;;;5069342;28;20048;-65
2022/09/25 00:03:35;;;;;;;11.45;0.90;;;12.60;99.90;;;;;;5068705;28;20035;-65
2022/09/25 00:06:07;;;;;;;11.77;0.77;;;12.60;99.90;;;;;;5069587;28;20526;-65
2022/09/25 00:08:33;;;;;;;9.70;0.77;;;12.70;99.90;;;;;;5069995;28;20566;-65
2022/09/25 00:11:03;;;;;;;12.45;0.80;;;12.70;99.90;;;;;;5069087;28;20055;-64
2022/09/25 00:13:29;;;;;;;8.30;0.60;;;12.70;99.90;;;;;;5068764;28;20044;-65
2022/09/25 00:15:56;;;;;;;9.32;0.80;;;12.70;99.90;;;;;;5052227;28;20047;-64
2022/09/25 00:21:11;;;;;;;10.23;0.80;;;12.70;99.90;;;;;;5068304;28;20369;-64
2022/09/25 00:23:38;;;;;;;12.20;0.60;;;12.60;99.90;;;;;;5068185;28;20085;-64
2022/09/25 00:26:05;;;;;;;12.57;0.70;;;12.70;99.90;;;;;;5068924;28;20043;-64
2022/09/25 00:28:31;;;;;;;6.43;0.40;;;12.60;99.90;;;;;;5068389;28;20039;-65
2022/09/25 00:30:57;;;;;;;13.25;0.60;;;12.60;99.90;;;;;;5068814;28;20058;-65
2022/09/25 00:33:23;;;;;;;11.10;0.80;;;12.50;99.90;;;;;;5068561;28;20109;-65
2022/09/25 00:35:49;;;;;;;8.82;0.60;;;12.60;99.90;;;;;;5068331;28;20048;-64
2022/09/25 00:38:14;;;;;;;10.13;0.70;;;12.50;99.90;;;;;;5054784;28;20591;-65
2022/09/25 00:40:40;;;;;;;6.43;0.38;;;12.50;99.90;;;;;;5055126;28;20051;-64
2022/09/25 00:43:15;;;;;;;8.85;0.60;;;12.60;99.90;;;;;;5071741;28;20131;-65
2022/09/25 00:45:42;;;;;;;9.00;0.93;;;12.60;99.90;;;;;;5057894;28;20051;-65
2022/09/25 00:48:13;;;;;;;4.88;0.40;;;12.60;99.90;;;;;;5072134;28;20051;-64
2022/09/25 00:50:52;;;;;;;7.43;0.47;;;12.50;99.90;;;;;;5072937;28;20068;-65
2022/09/25 00:53:24;;;;;;;7.85;0.40;;;12.50;99.90;;;;;;5071279;28;20035;-64
2022/09/25 00:55:50;;;;;;;7.78;0.70;;;12.60;99.90;;;;;;5055016;28;20707;-64
2022/09/25 00:58:20;;;;;;;8.05;0.40;;;12.60;99.90;;;;;;5071672;28;20071;-65
2022/09/25 01:00:47;;;;;;;10.73;0.65;;;12.50;99.90;;;;;;5071067;28;20589;-65
2022/09/25 01:03:13;;;;;;;10.50;0.82;;;12.50;99.90;;;;;;5070748;28;20497;-64
2022/09/25 01:05:42;;;;;;;8.70;0.70;;;12.60;99.90;;;;;;5053959;28;20047;-65
2022/09/25 01:08:13;;;;;;;9.65;0.45;;;12.60;99.90;;;;;;5072936;28;20040;-66
2022/09/25 01:10:39;;;;;;;6.93;0.50;;;12.50;99.90;;;;;;5070987;28;20047;-65
2022/09/25 01:13:05;;;;;;;8.63;0.40;;;12.50;99.90;;;;;;5054137;28;20514;-65
2022/09/25 01:15:37;;;;;;;10.43;0.50;;;12.50;99.90;;;;;;5072779;28;20047;-64
2022/09/25 01:18:21;;;;;;;9.75;0.95;;;12.50;99.90;;;;;;5071459;28;20086;-65
2022/09/25 01:20:59;;;;;;;8.05;0.85;;;12.60;99.90;;;;;;5071426;28;20324;-65
2022/09/25 01:23:43;;;;;;;9.55;0.40;;;12.50;99.90;;;;;;5070805;28;20035;-65
2022/09/25 01:26:27;;;;;;;;;;;12.40;99.90;;;;;;5072353;28;20051;-65
2022/09/25 01:28:58;;;;;;;11.40;0.50;;;12.50;99.90;;;;;;5071482;28;19927;-64
2022/09/25 01:31:34;;;;;;;6.18;0.57;;;12.50;99.90;;;;;;5072028;28;20118;-65
2022/09/25 01:34:23;;;;;;;8.88;0.45;;;12.50;99.90;;;;;;5070566;28;20500;-65
2022/09/25 01:37:21;;;;;;;8.48;0.50;;;12.40;99.90;;;;;;5070304;28;20079;-66
2022/09/25 01:39:59;;;;;;;9.30;0.60;;;12.50;99.90;;;;;;5065272;28;20048;-65
2022/09/25 01:42:29;;;;;;;8.27;0.40;;;12.40;99.90;;;;;;5071215;28;20040;-65
2022/09/25 01:45:06;;;;;;;10.82;0.70;;;12.30;99.90;;;;;;5070868;28;20738;-65
2022/09/25 01:47:38;;;;;;;6.80;0.43;;;12.50;99.90;;;;;;5070288;28;20193;-65
2022/09/25 01:50:13;;;;;;;10.45;0.70;;;12.30;99.90;;;;;;5054241;28;20048;-65
2022/09/25 01:52:47;;;;;;;11.98;0.60;;;12.40;99.90;;;;;;5054429;28;20509;-65
2022/09/25 01:55:30;;;;;;;10.32;0.60;;;12.40;99.90;;;;;;5069788;28;20111;-65
2022/09/25 01:58:12;;;;;;;9.30;0.40;;;12.20;99.90;;;;;;5069760;28;20036;-65
2022/09/25 02:00:42;;;;;;;7.68;0.43;;;12.20;99.90;;;;;;5070500;28;20119;-65
2022/09/25 02:03:29;;;;;;;9.52;0.40;;;12.20;99.90;;;;;;5070006;28;20522;-65
2022/09/25 02:06:01;;;;;;;10.77;0.43;;;12.20;99.90;;;;;;5070955;28;20040;-65
2022/09/25 02:08:47;;;;;;;6.35;0.63;;;12.20;99.90;;;;;;5070314;28;20040;-67
2022/09/25 02:11:13;;;;;;;7.07;0.50;;;12.20;99.90;;;;;;5070276;28;20426;-65
2022/09/25 02:14:22;;;;;;;7.60;0.40;;;12.10;99.90;;;;;;5070229;28;20048;-65
2022/09/25 02:16:52;;;;;;;9.88;0.80;;;12.20;99.90;;;;;;5014324;28;20047;-65
2022/09/25 02:22:23;;;;;;;10.02;0.70;;;12.10;99.90;;;;;;5069300;28;20047;-66
2022/09/25 02:25:03;;;;;;;6.90;0.52;;;12.10;99.90;;;;;;5070316;28;20079;-64
2022/09/25 02:27:29;;;;;;;8.80;0.50;;;12.00;99.90;;;;;;5070189;28;20047;-64
2022/09/25 02:29:57;;;;;;;10.40;1.00;;;12.10;99.90;;;;;;5070141;28;20035;-64
2022/09/25 02:32:29;;;;;;;5.47;0.30;;;12.10;99.90;;;;;;5069899;28;20157;-64
2022/09/25 02:34:56;;;;;;;8.98;0.65;;;11.90;99.90;;;;;;5053309;28;20140;-64
2022/09/25 02:37:22;;;;;;;8.85;0.30;;;11.90;99.90;;;;;;5069859;28;20044;-64
2022/09/25 02:39:53;;;;;;;7.20;0.52;;;11.90;99.90;;;;;;5069294;28;20119;-64
2022/09/25 02:42:28;;;;;;;6.43;0.32;;;11.60;99.90;;;;;;5069888;28;20062;-64
2022/09/25 02:45:16;;;;;;;9.27;0.50;;;11.60;99.90;;;;;;5070695;28;20237;-64
2022/09/25 02:47:59;;;;;;;8.32;0.40;;;11.70;99.90;;;;;;5069568;28;20096;-64
2022/09/25 02:50:55;;;;;;;14.43;1.05;;;11.60;99.90;;;;;;5051051;28;20382;-63
2022/09/25 02:53:39;;;;;;;9.80;0.40;;;11.50;99.90;;;;;;5069041;28;20039;-64
2022/09/25 02:56:13;;;;;;;7.45;0.73;;;11.50;99.90;;;;;;5072044;28;20044;-64
2022/09/25 02:58:44;;;;;;;9.20;0.65;;;11.60;99.90;;;;;;5070228;28;20087;-65
2022/09/25 03:01:13;;;;;;;14.57;0.50;;;11.60;99.90;;;;;;5069453;28;20471;-64
2022/09/25 03:03:40;;;;;;;9.60;0.57;;;11.60;99.90;;;;;;5069978;28;20506;-64
2022/09/25 03:06:07;;;;;;;14.98;0.68;;;11.60;99.90;;;;;;5070486;28;20040;-64
2022/09/25 03:08:36;;;;;;;6.95;0.50;;;11.40;99.90;;;;;;5054453;28;20086;-64
2022/09/25 03:11:11;;;;;;;9.70;0.60;;;11.40;99.90;;;;;;5070005;28;20078;-64
2022/09/25 03:13:37;;;;;;;7.40;0.45;;;11.40;99.90;;;;;;5070906;28;20810;-64
2022/09/25 03:16:21;;;;;;;6.63;0.47;;;11.50;99.90;;;;;;5072083;28;20111;-64
2022/09/25 03:18:47;;;;;;;6.85;0.38;;;11.40;99.90;;;;;;5070660;28;20044;-64
2022/09/25 03:21:12;;;;;;;10.25;0.70;;;11.30;99.90;;;;;;5068300;28;20482;-65
2022/09/25 03:23:39;;;;;;;5.38;0.30;;;11.30;99.90;;;;;;5070197;28;20040;-64
2022/09/25 03:26:06;;;;;;;7.18;0.35;;;11.40;99.90;;;;;;5071821;28;20131;-65
2022/09/25 03:28:32;;;;;;;5.05;0.30;;;11.30;99.90;;;;;;5070108;28;20048;-64
2022/09/25 03:31:01;;;;;;;5.60;0.35;;;11.30;99.90;;;;;;5071874;28;20105;-64
2022/09/25 03:33:32;;;;;;;5.28;0.50;;;11.30;99.90;;;;;;5070727;28;20036;-65
2022/09/25 03:36:05;;;;;;;8.05;0.30;;;11.20;99.90;;;;;;5070225;28;20117;-64
2022/09/25 03:38:31;;;;;;;10.38;0.45;;;11.10;99.90;;;;;;5069355;28;20143;-64
2022/09/25 03:40:57;;;;;;;12.63;0.60;;;11.10;99.90;;;;;;5070272;28;20101;-65
2022/09/25 03:43:22;;;;;;;8.80;0.60;;;11.20;99.90;;;;;;5070798;28;20052;-64
2022/09/25 03:45:48;;;;;;;8.82;0.50;;;11.00;99.90;;;;;;5053107;28;20042;-65
2022/09/25 03:48:14;;;;;;;11.38;1.00;;;11.20;99.90;;;;;;5070123;28;20264;-64
2022/09/25 03:50:40;;;;;;;6.95;0.40;;;11.10;99.90;;;;;;5070080;28;20067;-64
2022/09/25 03:53:06;;;;;;;11.00;0.73;;;11.20;99.90;;;;;;5036283;28;20040;-64
2022/09/25 03:55:32;;;;;;;10.77;0.60;;;11.10;99.90;;;;;;5070308;28;20040;-66
2022/09/25 03:57:58;;;;;;;10.18;0.77;;;11.20;99.90;;;;;;5070480;28;20040;-64
2022/09/25 04:00:24;;;;;;;6.82;0.50;;;11.20;99.90;;;;;;5070178;28;20044;-64
2022/09/25 04:02:50;;;;;;;10.23;0.47;;;11.30;99.90;;;;;;5069934;28;20067;-64
2022/09/25 04:05:17;;;;;;;11.45;0.52;;;11.40;99.90;;;;;;5053476;28;20032;-64
2022/09/25 04:07:43;;;;;;;8.00;0.40;;;11.50;99.90;;;;;;5052720;28;20127;-64
2022/09/25 04:10:09;;;;;;;11.20;0.50;;;11.50;99.90;;;;;;5053383;28;20040;-64
2022/09/25 04:12:35;;;;;;;8.70;0.50;;;11.40;99.90;;;;;;5056742;28;20600;-64
2022/09/25 04:15:01;;;;;;;8.48;0.60;;;11.30;99.90;;;;;;5057542;28;20553;-65
2022/09/25 04:17:28;;;;;;;9.98;0.50;;;11.30;99.90;;;;;;5073329;28;20300;-65
2022/09/25 04:19:53;;;;;;;8.50;0.70;;;11.30;99.90;;;;;;5073651;28;20476;-65
2022/09/25 04:22:19;;;;;;;8.25;0.40;;;11.10;99.90;;;;;;5056755;28;20128;-65
2022/09/25 04:24:48;;;;;;;10.90;0.80;;;11.00;99.90;;;;;;5073820;28;20081;-65
2022/09/25 04:27:18;;;;;;;7.60;0.40;;;11.00;99.90;;;;;;5057331;28;20375;-65
2022/09/25 04:29:44;;;;;;;10.70;0.90;;;10.90;99.90;;;;;;5073568;28;20184;-65
2022/09/25 04:34:54;;;;;;;10.52;1.08;;;10.90;99.90;;;;;;5073627;28;20125;-65
2022/09/25 04:37:25;;;;;;;8.32;0.50;;;11.00;99.90;;;;;;5064151;28;20048;-65
2022/09/25 04:39:52;;;;;;;9.55;0.65;;;11.00;99.90;;;;;;5073259;28;20495;-65
2022/09/25 04:42:22;;;;;;;7.50;0.50;;;11.10;99.90;;;;;;5072670;28;20373;-65
2022/09/25 04:44:47;;;;;;;9.07;0.60;;;11.00;99.90;;;;;;5073534;28;20520;-65
2022/09/25 04:47:13;;;;;;;9.40;0.50;;;11.10;99.90;;;;;;5072994;28;20046;-65
2022/09/25 04:49:38;;;;;;;8.73;0.63;;;11.00;99.90;;;;;;5073984;28;20040;-65
2022/09/25 04:52:05;;;;;;;7.93;0.40;;;10.90;99.90;;;;;;5040280;28;20083;-65
2022/09/25 04:54:31;;;;;;;10.38;0.95;;;11.00;99.90;;;;;;5073164;28;20052;-65
2022/09/25 04:56:56;;;;;;;13.48;0.80;;;10.80;99.90;;;;;;5073242;28;20048;-65
2022/09/25 04:59:22;;;;;;;9.43;0.60;;;10.90;99.90;;;;;;5072415;28;20044;-65
2022/09/25 05:01:48;;;;;;;8.80;0.70;;;10.80;99.90;;;;;;5073048;28;20036;-65
2022/09/25 05:04:15;;;;;;;9.07;0.50;;;10.80;99.90;;;;;;5056386;28;20036;-65
2022/09/25 05:06:40;;;;;;;12.45;0.93;;;10.70;99.90;;;;;;5056628;28;20047;-65
2022/09/25 05:09:06;;;;;;;10.02;0.50;;;10.60;99.90;;;;;;5055392;28;20044;-65
2022/09/25 05:11:32;;;;;;;9.68;0.50;;;10.60;99.90;;;;;;5072851;28;20520;-65
2022/09/25 05:13:57;;;;;;;10.60;0.57;;;10.60;99.90;;;;;;5055705;28;20063;-65
2022/09/25 05:16:23;;;;;;;9.38;0.50;;;10.50;99.90;;;;;;5055912;28;20055;-65
2022/09/25 05:18:49;;;;;;;8.60;0.70;;;10.60;99.90;;;;;;5072802;28;20048;-65
2022/09/25 05:21:14;;;;;;;6.85;0.47;;;10.60;99.90;;;;;;5072903;28;20188;-65
2022/09/25 05:23:40;;;;;;;9.90;0.50;;;10.40;99.90;;;;;;5071968;28;20044;-65
2022/09/25 05:26:05;;;;;;;7.45;0.47;;;10.30;99.90;;;;;;5072605;28;20040;-65
2022/09/25 05:28:32;;;;;;;9.30;0.75;;;10.20;99.90;;;;;;5055542;28;20044;-65
2022/09/25 05:31:02;;;;;;;8.65;0.60;;;10.20;99.90;;;;;;5072156;28;20336;-65
2022/09/25 05:33:29;;;;;;;7.38;0.40;;;10.10;99.90;;;;;;5055153;28;20039;-64
2022/09/25 05:35:54;;;;;;;4.57;0.40;;;10.00;99.90;;;;;;5055780;28;20060;-65
2022/09/25 05:38:20;;;;;;;5.25;0.50;;;9.80;99.90;;;;;;5072032;28;20151;-65
2022/09/25 05:40:46;;;;;;;8.77;0.60;;;9.90;99.90;;;;;;5072287;28;20078;-65
2022/09/25 05:43:12;;;;;;;7.10;0.80;;;9.60;99.90;;;;;;5072364;28;20047;-65
2022/09/25 05:45:37;;;;;;;7.32;0.70;;;9.70;99.90;;;;;;5072510;28;20573;-66
2022/09/25 05:48:06;;;;;;;6.63;0.50;;;9.40;99.90;;;;;;5054888;28;20044;-64
2022/09/25 05:50:32;;;;;;;6.72;0.60;;;9.40;99.90;;;;;;5055312;28;20331;-64
2022/09/25 05:53:03;;;;;;;7.13;0.60;;;9.40;99.90;;;;;;5071752;28;20075;-66
2022/09/25 05:55:29;;;;;;;8.57;0.68;;;9.60;99.90;;;;;;5072072;28;20044;-65
2022/09/25 05:58:05;;;;;;;8.57;0.60;;;9.50;99.90;;;;;;5070880;28;20463;-65
2022/09/25 06:00:31;;;;;;;6.75;0.55;;;9.50;99.90;;;;;;5071724;28;20330;-65
2022/09/25 06:02:58;;;;;;;7.43;0.63;;;9.40;99.90;;;;;;5054839;28;20085;-65
2022/09/25 06:05:24;;;;;;;6.47;0.50;;;9.20;99.90;;;;;;5071530;28;20044;-65
2022/09/25 06:07:54;;;;;;;5.88;0.60;;;9.40;99.90;;;;;;5071201;28;20549;-65
2022/09/25 06:10:20;;;;;;;7.90;0.80;;;9.40;99.90;;;;;;5072820;28;20040;-65
2022/09/25 06:12:46;;;;;;;8.52;0.70;;;9.50;99.90;;;;;;5071089;28;20525;-65
2022/09/25 06:15:11;;;;;;;6.78;0.60;;;9.50;99.90;;;;;;5054760;28;20089;-65
2022/09/25 06:17:37;;;;;;;6.25;0.57;;;9.50;99.90;;;;;;5071429;28;20131;-65
2022/09/25 06:20:03;;;;;;;5.57;0.40;;;9.60;99.90;;;;;;5054124;28;20411;-65
2022/09/25 06:22:29;;;;;;;6.25;0.70;;;9.70;99.90;;;;;;5054407;28;20449;-66
2022/09/25 06:24:54;;;;;;;4.68;0.40;;;10.00;99.90;;;;;;5054313;28;20050;-66
2022/09/25 06:27:20;;;;;;;10.43;0.75;;;9.80;99.90;;;;;;5053880;28;20044;-65
2022/09/25 06:29:46;;;;;;;7.85;0.70;;;10.00;99.90;;;;;;5054713;28;20221;-65
2022/09/25 06:32:11;;;;;;;10.60;0.90;;;9.90;99.90;;;;;;5071182;28;20048;-65
2022/09/25 06:34:37;;;;;;;6.03;0.50;;;9.70;99.90;;;;;;5070035;28;20143;-65
2022/09/25 06:37:02;;;;;;;6.40;0.80;;;9.90;99.90;;;;;;5053638;28;20733;-64
2022/09/25 06:39:31;;;;;;;6.90;0.50;;;9.80;99.90;;;;;;5070808;28;20087;-64
2022/09/25 06:41:57;;;;;;;4.28;0.43;;;9.90;99.90;;;;;;5070680;28;20044;-64
2022/09/25 06:44:23;;;;;;;7.85;0.60;;;10.30;99.90;;;;;;5053765;28;20047;-65
2022/09/25 06:46:49;;;;;;;8.82;0.60;;;11.00;99.90;;;;;;5070422;28;20044;-64
2022/09/25 06:49:15;;;;;;;7.03;0.50;;;11.40;99.90;;;;;;5070510;28;20557;-64
2022/09/25 06:51:41;;;;;;;7.55;0.47;;;11.70;99.90;;;;;;5054280;28;20320;-65
2022/09/25 06:54:06;;;;;;;7.30;0.77;;;12.30;99.90;;;;;;5053676;28;20284;-65
2022/09/25 06:56:32;;;;;;;8.65;0.50;;;12.80;99.90;;;;;;5053020;28;20039;-65
2022/09/25 06:58:58;;;;;;;7.50;0.40;;;12.90;99.90;;;;;;5053918;28;20121;-65
2022/09/25 07:01:23;;;;;;;7.22;0.50;;;13.40;99.90;;;;;;5037202;28;20101;-65
2022/09/25 07:03:49;;;;;;;7.93;0.40;;;13.60;99.90;;;;;;5053788;28;20312;-64
2022/09/25 07:06:20;;;;;;;7.47;0.43;;;13.80;99.90;;;;;;5036591;28;20043;-65
2022/09/25 07:08:47;;;;;;;7.75;0.40;;;13.90;99.90;;;;;;5070505;28;20148;-66
2022/09/25 07:11:15;;;;;;;8.05;0.32;;;14.60;99.90;;;;;;5036771;28;20117;-65
2022/09/25 07:13:41;;;;;;;6.88;0.32;;;14.90;99.90;;;;;;5071075;28;20759;-65
2022/09/25 07:16:18;;;;;;;8.70;0.40;;;15.50;99.90;;;;;;5070080;28;20514;-65
2022/09/25 07:18:44;;;;;;;5.45;0.30;;;15.90;99.90;;;;;;5070313;28;20545;-64
2022/09/25 07:21:18;;;;;;;4.35;0.30;;;16.10;99.90;;;;;;5069345;28;20040;-65
2022/09/25 07:23:47;;;;;;;6.78;0.60;;;16.40;99.90;;;;;;5070734;28;20893;-65
2022/09/25 07:26:21;;;;;;;4.60;0.25;;;16.50;99.90;;;;;;5069973;28;20048;-65
2022/09/25 07:28:57;;;;;;;5.93;0.30;;;16.90;99.90;;;;;;5053285;28;20577;-65
2022/09/25 07:31:26;;;;;;;5.55;0.30;;;17.10;99.90;;;;;;5069208;28;20104;-66
2022/09/25 07:33:52;;;;;;;3.85;0.30;;;17.30;99.90;;;;;;5069904;28;20040;-65
2022/09/25 07:36:19;;;;;;;4.57;0.35;;;17.50;99.90;;;;;;5070200;28;20361;-65
2022/09/25 07:38:52;;;;;;;4.78;0.40;;;17.60;99.90;;;;;;5069930;28;20039;-65
2022/09/25 07:41:18;;;;;;;;;;;17.80;99.90;;;;;;5053248;28;20105;-66
2022/09/25 07:43:44;;;;;;;5.38;0.60;;;17.50;99.90;;;;;;5068336;28;20717;-65
2022/09/25 07:46:11;;;;;;;4.78;0.30;;;17.80;99.90;;;;;;5070114;28;20402;-65
2022/09/25 07:48:37;;;;;;;6.95;0.40;;;18.00;99.90;;;;;;5073499;28;20537;-66
2022/09/25 07:51:05;;;;;;;2.72;0.20;;;18.20;99.90;;;;;;5072763;28;20560;-65
2022/09/25 07:53:31;;;;;;;5.35;0.20;;;18.30;99.90;;;;;;5072293;28;20370;-66
2022/09/25 07:56:01;;;;;;;4.38;0.52;;;18.30;99.90;;;;;;5055883;28;20634;-65
2022/09/25 07:58:28;;;;;;;3.60;0.30;;;18.40;99.90;;;;;;5038424;28;20085;-66
2022/09/25 08:00:58;;;;;;;4.50;0.20;;;18.40;99.90;;;;;;5072582;28;20236;-66
2022/09/25 08:03:24;;;;;;;3.03;0.28;;;18.70;99.90;;;;;;5072298;28;20095;-66
2022/09/25 08:06:08;;;;;;;3.25;0.20;;;18.80;99.90;;;;;;5072542;28;20139;-64
2022/09/25 08:08:34;;;;;;;3.28;0.20;;;18.90;99.90;;;;;;5072249;28;20047;-64
2022/09/25 08:11:06;;;;;;;3.88;0.22;;;19.00;99.90;;;;;;5070874;28;20043;-64
2022/09/25 08:13:32;;;;;;;14.45;0.52;;;19.20;99.90;;;;;;5071051;28;20055;-64
2022/09/25 08:16:00;;;;;;;2.58;0.30;;;19.30;99.90;;;;;;5070734;28;20297;-65
2022/09/25 08:18:26;;;;;;;3.38;0.30;;;19.30;99.90;;;;;;5071195;28;20265;-65
2022/09/25 08:21:16;;;;;;;4.82;0.30;;;19.60;99.90;;;;;;5072953;28;20036;-64
2022/09/25 08:23:44;;;;;;;4.55;0.20;;;19.90;99.90;;;;;;5072580;28;20031;-67
2022/09/25 08:26:09;;;;;;;5.45;0.20;;;19.90;99.90;;;;;;5072329;28;20031;-64
2022/09/25 08:28:35;;;;;;;4.65;0.20;;;20.10;99.90;;;;;;5054305;28;20047;-65
2022/09/25 08:31:02;;;;;;;3.08;0.20;;;20.20;99.90;;;;;;5037240;28;20512;-65
2022/09/25 08:33:28;;;;;;;4.20;0.20;;;20.20;99.90;;;;;;5071831;28;20129;-64
2022/09/25 08:36:00;;;;;;;2.70;0.17;;;19.90;99.90;;;;;;5070526;28;20055;-64
2022/09/25 08:38:27;;;;;;;3.90;0.30;;;20.30;99.90;;;;;;5086861;28;20048;-64
2022/09/25 08:40:59;;;;;;;6.32;0.30;;;20.40;99.90;;;;;;5070731;28;20494;-64
2022/09/25 08:43:26;;;;;;;5.15;0.40;;;20.80;99.90;;;;;;5070095;28;20036;-65
2022/09/25 08:49:05;;;;;;;3.38;0.20;;;20.90;99.90;;;;;;5071214;28;20052;-65
2022/09/25 08:51:44;;;;;;;4.60;0.30;;;20.90;99.80;;;;;;5072914;28;20142;-64
2022/09/25 08:54:28;;;;;;;3.75;0.30;;;21.00;99.90;;;;;;5070996;28;20044;-65
2022/09/25 08:57:12;;;;;;;3.17;0.20;;;21.00;97.60;;;;;;5071317;28;20601;-65
2022/09/25 08:59:41;;;;;;;5.13;0.30;;;21.20;97.70;;;;;;5072085;28;20079;-65
2022/09/25 09:02:18;;;;;;;4.43;0.30;;;21.50;99.90;;;;;;5071140;28;20054;-65
2022/09/25 09:04:51;;;;;;;4.05;0.40;;;21.30;99.40;;;;;;5071593;28;20051;-65
2022/09/25 09:07:33;;;;;;;3.55;0.28;;;21.40;98.30;;;;;;5070833;28;20132;-66
2022/09/25 09:10:21;;;;;;;6.63;0.30;;;21.40;99.40;;;;;;5069877;28;20056;-66
2022/09/25 09:12:52;;;;;;;3.30;0.20;;;21.60;99.90;;;;;;5032806;28;20513;-65
2022/09/25 09:15:28;;;;;;;4.43;0.30;;;21.80;95.80;;;;;;5072554;28;20388;-65
2022/09/25 09:17:54;;;;;;;4.57;0.20;;;21.50;94.60;;;;;;5070120;28;20032;-66
2022/09/25 09:20:48;;;;;;;2.92;0.30;;;21.20;98.90;;;;;;5052946;28;20048;-66
2022/09/25 09:23:18;;;;;;;5.07;0.35;;;21.40;98.30;;;;;;5046771;28;20201;-66
2022/09/25 09:26:22;;;;;;;5.43;0.40;;;21.00;98.60;;;;;;5069400;28;20090;-64
2022/09/25 09:29:06;;;;;;;4.65;0.40;;;21.50;94.40;;;;;;5070403;28;20255;-66
2022/09/25 09:31:46;;;;;;;4.63;0.30;;;21.70;96.50;;;;;;5069182;28;20144;-66
2022/09/25 09:34:20;;;;;;;4.90;0.30;;;22.00;94.70;;;;;;5052355;28;20052;-66
2022/09/25 09:37:24;;;;;;;3.90;0.20;;;22.10;90.70;;;;;;5058093;28;20048;-65
2022/09/25 09:39:56;;;;;;;5.03;0.32;;;21.90;87.20;;;;;;5069061;28;20070;-66
2022/09/25 09:42:30;;;;;;;3.72;0.20;;;22.10;89.50;;;;;;5070096;28;20555;-66
2022/09/25 09:45:20;;;;;;;1.80;0.20;;;22.40;88.30;;;;;;5069508;28;20398;-67
2022/09/25 09:47:53;;;;;;;4.03;0.28;;;22.40;86.10;;;;;;5071312;28;20047;-65
2022/09/25 09:50:39;;;;;;;4.35;0.30;;;22.50;88.90;;;;;;5071160;28;20051;-64
2022/09/25 09:53:33;;;;;;;4.90;0.30;;;22.40;90.30;;;;;;5070404;28;20048;-64
2022/09/25 09:56:29;;;;;;;3.85;0.20;;;22.70;90.30;;;;;;5063589;28;20060;-65
2022/09/25 09:59:05;;;;;;;4.38;0.22;;;22.60;79.10;;;;;;5072533;28;20055;-63
2022/09/25 10:01:37;;;;;;;3.55;0.28;;;22.80;81.80;;;;;;5042153;28;20093;-62
2022/09/25 10:04:10;;;;;;;3.87;0.40;;;23.10;81.90;;;;;;5073629;28;20027;-63
2022/09/25 10:06:38;;;;;;;5.13;0.22;;;22.90;83.00;;;;;;5071804;28;20293;-63
2022/09/25 10:09:07;;;;;;;4.80;0.30;;;23.10;83.60;;;;;;5070673;28;20486;-63
2022/09/25 10:11:33;;;;;;;3.78;0.20;;;23.30;81.90;;;;;;5073638;28;20227;-64
2022/09/25 10:14:02;;;;;;;4.38;0.38;;;23.30;76.80;;;;;;5069660;28;20206;-65
2022/09/25 10:16:29;;;;;;;5.10;0.40;;;23.10;73.50;;;;;;5071321;28;20614;-65
2022/09/25 10:19:04;;;;;;;3.40;0.30;;;23.20;83.50;;;;;;5038223;28;20208;-65
2022/09/25 10:21:42;;;;;;;4.78;0.30;;;23.50;84.10;;;;;;5071210;28;20339;-65
2022/09/25 10:24:07;;;;;;;4.22;0.20;;;23.50;80.20;;;;;;5070392;28;20446;-65
2022/09/25 10:26:39;;;;;;;3.20;0.20;;;23.70;76.90;;;;;;5053332;28;20039;-64
2022/09/25 10:29:20;;;;;;;4.90;0.30;;;23.00;73.90;;;;;;5055809;28;20119;-66
2022/09/25 10:31:47;;;;;;;1.85;0.20;;;21.90;75.70;;;;;;5072757;28;20048;-65
2022/09/25 10:34:15;;;;;;;3.05;0.30;;;21.10;83.00;;;;;;5058277;28;20140;-67
2022/09/25 10:36:44;;;;;;;2.63;0.20;;;20.70;90.90;;;;;;5058641;28;20051;-66
2022/09/25 10:39:42;;;;;;;3.05;0.20;;;20.30;93.60;;;;;;5072466;28;21147;-64
2022/09/25 10:42:40;;;;;;;2.95;0.30;;;19.80;95.30;;;;;;5042017;28;20093;-65
2022/09/25 10:45:21;;;;;;;3.17;0.30;;;20.00;97.40;;;;;;5059147;28;20062;-66
2022/09/25 10:50:35;;;;;;;2.15;0.20;;;19.40;96.20;;;;;;5092434;28;20055;-65
2022/09/25 10:53:03;;;;;;;4.40;0.30;;;19.10;99.90;;;;;;5075080;28;20214;-65
2022/09/25 10:55:38;;;;;;;5.20;0.25;;;19.20;99.70;;;;;;5058305;28;20101;-65
2022/09/25 10:58:10;;;;;;;5.10;0.20;;;18.50;99.80;;;;;;5074531;28;20640;-65
2022/09/25 11:00:57;;;;;;;4.05;0.30;;;17.60;99.90;;;;;;5074975;28;20508;-65
2022/09/25 11:03:27;;;;;;;2.13;0.30;;;17.30;99.90;;;;;;5073348;28;20209;-65
2022/09/25 11:05:56;;;;;;;5.30;0.22;;;17.70;99.90;;;;;;5054104;28;20509;-63
2022/09/25 11:08:29;;;;;;;4.43;0.20;;;18.60;99.90;;;;;;5070017;28;20297;-64
2022/09/25 11:10:57;;;;;;;2.57;0.20;;;18.90;99.90;;;;;;5053689;28;20416;-65
2022/09/25 11:13:27;;;;;;;4.45;0.30;;;19.80;99.90;;;;;;5070097;28;20881;-65
2022/09/25 11:15:57;;;;;;;4.47;0.30;;;19.30;98.10;;;;;;5071191;28;20115;-65
2022/09/25 11:19:04;;;;;;;3.47;0.25;;;19.30;98.60;;;;;;5068892;28;20032;-65
2022/09/25 11:21:43;;;;;;;6.20;0.40;;;19.20;99.50;;;;;;5067934;28;20879;-65
2022/09/25 11:24:24;;;;;;;4.72;0.40;;;17.80;99.90;;;;;;5066599;28;20048;-66
2022/09/25 11:27:02;;;;;;;5.65;0.80;;;17.40;99.90;;;;;;5068555;28;20085;-66
2022/09/25 11:29:49;;;;;;;3.75;0.50;;;17.20;99.90;;;;;;5050748;28;20044;-66
2022/09/25 11:32:25;;;;;;;4.95;0.38;;;17.00;99.90;;;;;;5067136;28;20052;-65
2022/09/25 11:35:00;;;;;;;3.25;0.30;;;16.70;99.90;;;;;;5067328;28;20048;-65
2022/09/25 11:37:57;;;;;;;5.40;1.02;;;16.50;99.90;;;;;;5067472;28;20192;-65
2022/09/25 11:44:15;;;;;;;4.78;0.30;;;16.60;99.90;;;;;;5067347;28;20120;-65
2022/09/25 11:46:52;;;;;;;4.72;0.20;;;18.00;99.90;;;;;;5067003;28;20117;-66
2022/09/25 11:49:23;;;;;;;1.95;0.20;;;18.80;99.90;;;;;;5067254;28;20036;-66
2022/09/25 11:52:08;;;;;;;3.45;0.32;;;19.10;99.90;;;;;;5051489;28;20115;-66
2022/09/25 11:54:39;;;;;;;2.72;0.20;;;19.10;99.90;;;;;;5066958;28;20376;-67
2022/09/25 11:57:35;;;;;;;6.78;0.40;;;18.10;99.90;;;;;;5051218;28;20184;-66
2022/09/25 12:00:11;;;;;;;9.77;0.93;;;16.00;99.90;;;;;;5084910;28;20402;-67
2022/09/25 12:02:43;;;;;;;20.33;1.58;;;14.80;99.90;;;;;;5051492;28;20036;-66
2022/09/25 12:05:27;;;;;;;12.98;0.88;;;14.30;99.90;;;;;;5050618;28;20059;-67
2022/09/25 12:08:31;;;;;;;8.73;0.60;;;13.70;99.90;;;;;;5066935;28;20208;-67
2022/09/25 12:11:01;;;;;;;8.18;0.50;;;13.80;99.90;;;;;;5068712;28;20371;-66
2022/09/25 12:13:44;;;;;;;7.80;0.50;;;13.40;99.90;;;;;;5066800;28;20052;-67
2022/09/25 12:16:36;;;;;;;6.18;0.60;;;13.60;99.90;;;;;;5049059;28;20489;-66
2022/09/25 12:19:41;;;;;;;8.18;1.05;;;13.70;99.90;;;;;;5066024;28;20131;-67
2022/09/25 12:22:12;;;;;;;10.10;0.70;;;13.80;99.90;;;;;;5048033;28;20689;-65
2022/09/25 12:24:56;;;;;;;12.23;1.27;;;13.60;99.90;;;;;;5051339;28;20506;-66
2022/09/25 12:27:41;;;;;;;7.50;0.60;;;13.50;99.90;;;;;;5067559;28;20540;-66
2022/09/25 12:30:14;;;;;;;7.95;0.50;;;13.70;99.90;;;;;;5067409;28;20036;-66
2022/09/25 12:32:52;;;;;;;7.80;0.50;;;13.50;99.90;;;;;;5052041;28;20043;-66
2022/09/25 12:35:23;;;;;;;8.48;0.40;;;13.50;99.90;;;;;;5071397;28;20052;-66
2022/09/25 12:38:01;;;;;;;12.23;1.08;;;13.50;99.90;;;;;;5072402;28;20052;-65
2022/09/25 12:40:39;;;;;;;8.13;0.70;;;14.00;99.90;;;;;;5071199;28;20548;-65
2022/09/25 12:43:11;;;;;;;5.30;0.30;;;13.90;99.90;;;;;;5053014;28;20040;-65
2022/09/25 12:45:49;;;;;;;5.28;0.60;;;14.60;99.90;;;;;;5071571;28;20097;-66
2022/09/25 12:48:38;;;;;;;5.40;0.30;;;15.70;99.90;;;;;;5070322;28;20349;-65
2022/09/25 12:51:11;;;;;;;5.65;0.30;;;16.80;99.90;;;;;;5070279;28;20058;-66
2022/09/25 12:53:50;;;;;;;3.20;0.20;;;17.80;99.90;;;;;;5053764;28;20460;-66
2022/09/25 12:56:24;;;;;;;3.50;0.20;;;19.20;99.90;;;;;;5070946;28;20214;-66
2022/09/25 12:58:58;;;;;;;4.25;0.22;;;19.20;99.90;;;;;;5070425;28;20043;-65
2022/09/25 13:01:53;;;;;;;4.68;0.38;;;20.60;99.90;;;;;;5070215;28;20040;-65
2022/09/25 13:04:26;;;;;;;3.95;0.40;;;19.90;99.90;;;;;;5070549;28;20510;-65
2022/09/25 13:07:08;;;;;;;3.40;0.20;;;19.50;99.90;;;;;;5053769;28;20050;-65
2022/09/25 13:09:46;;;;;;;4.88;0.30;;;18.60;99.90;;;;;;5069199;28;20147;-65
2022/09/25 13:12:32;;;;;;;4.25;0.38;;;18.70;99.90;;;;;;5070067;28;20155;-65
2022/09/25 13:15:03;;;;;;;4.47;0.32;;;18.10;99.90;;;;;;5070535;28;20551;-65
2022/09/25 13:17:30;;;;;;;3.88;0.28;;;18.40;99.90;;;;;;5070095;28;20040;-66
2022/09/25 13:20:28;;;;;;;3.05;0.40;;;18.30;99.90;;;;;;5050222;28;20280;-66
2022/09/25 13:23:15;;;;;;;4.18;0.25;;;19.20;99.90;;;;;;5069120;28;20040;-65
2022/09/25 13:25:43;;;;;;;7.47;0.47;;;19.50;99.90;;;;;;5052632;28;20321;-65
2022/09/25 13:28:18;;;;;;;7.20;0.45;;;19.80;99.90;;;;;;5070284;28;20079;-65
2022/09/25 13:31:21;;;;;;;3.42;0.22;;;19.50;99.90;;;;;;5066775;28;20140;-65